Terminal Aerodrome Forecast
Issued by NWS

Home | Current Version | Previous Version | Text Only | Print | Product List | Glossary On
Versions: 1 2 3 4 5 6 7 8 9 10 11 12 13 14 15 16 17 18 19 20 21 22 23 24 25 26 27 28
000
FTUS46 KMTR 300310 AAA
TAFSFO
TAF AMD
KSFO 300310Z 3003/0106 28018KT P6SM FEW010
     FM300500 28010KT P6SM SCT010
     FM300800 29009KT P6SM OVC007
     FM301700 29006KT P6SM FEW010 SCT015
     FM302100 30015G22KT P6SM SKC
     FM010400 29010KT P6SM SKC=

USA.gov is the U.S. government's official web portal to all federal, state and local government web resources and services.